Almeirim, Brazil
Current Conditions -  °F | °C
As of 7:00 PM on Saturday 20 Dec 2014 (Local Time) from SBHT Reporting Station
Broken Clouds Broken Clouds  
Wind Chill: 75°   Ceiling: 2000
Heat Index: 75°   Visibility: 6mi
Dew Point: 75°   Wind: 0mph
Humidity: 100%   Direction: NA
Pressure: 29.8"   Gusts: NA
Location:  1.53°S, 52.58°W
Report Text: SBHT 202200Z 00000KT 9999 BKN020 24/24 Q1009
Loading
Personal Weather Stations






























Interactive Weather Map New forecast layout! Learn more

10-Day Weather Forecast

Advertisements
Track Severe Weather on mobile